createdAt,value
2018-09-13T00:00:09.206Z,60.80
2018-09-13T00:02:38.221Z,62.77
2018-09-13T00:05:07.202Z,62.08
2018-09-13T00:07:36.250Z,62.63
2018-09-13T00:10:05.280Z,61.83
2018-09-13T00:12:34.234Z,64.00
2018-09-13T00:15:03.218Z,62.62
2018-09-13T00:17:32.196Z,64.83
2018-09-13T00:20:01.101Z,65.19
2018-09-13T00:22:30.081Z,64.77
2018-09-13T00:24:59.058Z,64.99
2018-09-13T00:27:28.093Z,62.89
2018-09-13T00:29:57.090Z,65.47
2018-09-13T00:32:26.086Z,65.46
2018-09-13T00:34:55.125Z,64.69
2018-09-13T00:37:24.041Z,63.91
2018-09-13T00:39:52.994Z,63.82
2018-09-13T00:42:21.950Z,63.85
2018-09-13T00:44:50.901Z,65.30
2018-09-13T00:47:19.938Z,63.89
2018-09-13T00:49:48.911Z,64.01
2018-09-13T00:52:17.910Z,64.61
2018-09-13T00:54:46.806Z,65.28
2018-09-13T00:57:15.769Z,64.99
2018-09-13T00:59:44.725Z,64.38
2018-09-13T01:02:13.695Z,63.08
2018-09-13T01:04:42.722Z,63.22
2018-09-13T01:07:11.698Z,63.00
2018-09-13T01:09:40.696Z,64.50
2018-09-13T01:12:09.836Z,64.95
2018-09-13T01:14:38.793Z,64.64
2018-09-13T01:17:07.881Z,64.88
2018-09-13T01:19:36.807Z,64.64
2018-09-13T01:22:05.750Z,66.60
2018-09-13T01:24:34.641Z,66.46
2018-09-13T01:27:03.661Z,65.57
2018-09-13T01:29:32.627Z,66.93
2018-09-13T01:32:01.629Z,66.54
2018-09-13T01:34:30.636Z,66.55
2018-09-13T01:36:59.714Z,67.00
2018-09-13T01:39:28.689Z,66.35
2018-09-13T01:41:57.699Z,65.68
2018-09-13T01:44:26.694Z,67.52
2018-09-13T01:46:55.773Z,66.71
2018-09-13T01:49:24.699Z,67.19
2018-09-13T01:51:53.713Z,65.08
2018-09-13T01:54:22.617Z,66.28
2018-09-13T01:56:51.601Z,65.39
2018-09-13T01:59:20.522Z,64.73
2018-09-13T02:01:49.566Z,64.87
2018-09-13T02:04:18.471Z,65.83
2018-09-13T02:06:47.478Z,66.08
2018-09-13T02:09:16.438Z,66.71
2018-09-13T02:11:45.457Z,67.48
2018-09-13T02:14:14.463Z,67.68
2018-09-13T02:16:43.621Z,67.83
2018-09-13T02:19:12.606Z,68.00
2018-09-13T02:21:41.549Z,67.25
2018-09-13T02:24:10.558Z,66.50
2018-09-13T02:26:39.609Z,66.75
2018-09-13T02:29:08.602Z,66.84
2018-09-13T02:31:37.492Z,67.76
2018-09-13T02:34:06.441Z,68.26
2018-09-13T02:36:35.409Z,66.57
2018-09-13T02:39:05.725Z,66.68
2018-09-13T02:41:34.711Z,66.37
2018-09-13T02:44:04.143Z,69.27
2018-09-13T02:46:33.250Z,67.09
2018-09-13T02:49:02.338Z,67.77
2018-09-13T02:51:31.290Z,66.64
2018-09-13T02:54:00.508Z,66.64
2018-09-13T02:56:29.727Z,66.46
2018-09-13T02:58:58.739Z,65.56
2018-09-13T03:01:27.696Z,65.78
2018-09-13T03:03:56.833Z,66.76
2018-09-13T03:06:25.795Z,64.63
2018-09-13T03:08:54.742Z,65.61
2018-09-13T03:11:23.756Z,65.27
2018-09-13T03:13:52.795Z,64.99
2018-09-13T03:16:21.793Z,64.70
2018-09-13T03:18:50.821Z,64.24
2018-09-13T03:21:19.774Z,65.19
2018-09-13T03:23:48.873Z,65.08
2018-09-13T03:26:17.809Z,65.01
2018-09-13T03:28:46.941Z,64.80
2018-09-13T03:31:15.881Z,64.94
2018-09-13T03:33:44.997Z,64.91
2018-09-13T03:36:13.961Z,66.75
2018-09-13T03:38:43.001Z,65.46
2018-09-13T03:41:11.893Z,65.55
2018-09-13T03:43:41.003Z,65.34
2018-09-13T03:46:10.060Z,65.36
2018-09-13T03:48:39.123Z,66.56
2018-09-13T03:51:08.087Z,65.38
2018-09-13T03:53:37.130Z,65.98
2018-09-13T03:56:06.237Z,66.02
2018-09-13T03:58:35.229Z,65.07
2018-09-13T04:01:04.266Z,65.56
2018-09-13T04:03:33.355Z,65.52
2018-09-13T04:06:02.406Z,65.59
2018-09-13T04:08:31.471Z,65.37
2018-09-13T04:11:00.449Z,65.52
2018-09-13T04:13:29.511Z,64.94
2018-09-13T04:15:58.519Z,64.93
2018-09-13T04:18:27.469Z,65.07
2018-09-13T04:20:56.349Z,65.05
2018-09-13T04:23:25.318Z,65.50
2018-09-13T04:25:54.328Z,65.50
2018-09-13T04:28:23.395Z,65.84
2018-09-13T04:30:52.306Z,65.77
2018-09-13T04:33:21.314Z,65.99
2018-09-13T04:35:50.407Z,65.98
2018-09-13T04:38:19.405Z,66.11
2018-09-13T04:40:48.334Z,66.52
2018-09-13T04:43:17.369Z,65.94
2018-09-13T04:45:46.863Z,65.78
2018-09-13T04:48:15.988Z,66.08
2018-09-13T04:50:44.885Z,66.26
2018-09-13T04:53:13.922Z,67.56
2018-09-13T04:55:43.073Z,66.20
2018-09-13T04:58:12.145Z,67.11
2018-09-13T05:00:41.173Z,66.34
2018-09-13T05:03:10.163Z,66.16
2018-09-13T05:05:39.161Z,66.63
2018-09-13T05:08:08.154Z,66.48
2018-09-13T05:10:37.119Z,65.89
2018-09-13T05:13:06.249Z,66.54
2018-09-13T05:15:35.294Z,65.63
2018-09-13T05:18:04.282Z,65.87
2018-09-13T05:20:33.264Z,65.67
2018-09-13T05:23:02.230Z,65.52
2018-09-13T05:25:31.293Z,65.43
2018-09-13T05:28:00.257Z,65.80
2018-09-13T05:30:29.290Z,64.75
2018-09-13T05:32:58.208Z,64.46
2018-09-13T05:35:27.233Z,64.81
2018-09-13T05:37:56.162Z,64.91
2018-09-13T05:40:25.293Z,64.48
2018-09-13T05:42:54.367Z,64.44
2018-09-13T05:45:23.303Z,65.19
2018-09-13T05:47:52.222Z,64.12
2018-09-13T05:50:21.192Z,64.15
2018-09-13T05:52:50.221Z,64.61
2018-09-13T05:55:19.301Z,63.25
2018-09-13T05:57:48.282Z,64.03
2018-09-13T06:00:17.265Z,64.76
2018-09-13T06:02:46.221Z,65.78
2018-09-13T06:05:15.355Z,64.16
2018-09-13T06:07:44.285Z,62.89
2018-09-13T06:10:13.418Z,62.93
2018-09-13T06:12:42.381Z,63.55
2018-09-13T06:15:11.382Z,63.85
2018-09-13T06:17:41.233Z,63.75
2018-09-13T06:20:10.291Z,63.68
2018-09-13T06:22:39.327Z,64.23
2018-09-13T06:25:08.373Z,64.80
2018-09-13T06:27:37.288Z,63.18
2018-09-13T06:30:06.317Z,62.78
2018-09-13T06:32:35.269Z,63.29
2018-09-13T06:35:04.345Z,62.65
2018-09-13T06:37:33.293Z,61.83
2018-09-13T06:40:02.333Z,62.38
2018-09-13T06:42:31.520Z,63.20
2018-09-13T06:45:00.464Z,63.51
2018-09-13T06:47:29.410Z,63.96
2018-09-13T06:49:58.422Z,62.92
2018-09-13T06:52:27.421Z,63.04
2018-09-13T06:54:56.452Z,62.92
2018-09-13T06:57:25.795Z,63.73
2018-09-13T06:59:54.805Z,62.59
2018-09-13T07:02:24.005Z,62.63
2018-09-13T07:04:53.331Z,62.57
2018-09-13T07:07:22.433Z,63.01
2018-09-13T07:09:51.422Z,61.71
2018-09-13T07:12:20.426Z,62.01
2018-09-13T07:14:49.517Z,62.06
2018-09-13T07:17:18.433Z,61.18
2018-09-13T07:19:47.477Z,60.69
2018-09-13T07:22:16.449Z,60.75
2018-09-13T07:24:45.444Z,59.77
2018-09-13T07:27:14.366Z,59.64
2018-09-13T07:29:43.367Z,60.29
2018-09-13T07:32:12.345Z,59.75
2018-09-13T07:34:41.350Z,59.63
2018-09-13T07:37:10.290Z,59.46
2018-09-13T07:39:39.348Z,60.13
2018-09-13T07:42:08.411Z,60.85
2018-09-13T07:44:37.667Z,61.40
2018-09-13T07:47:06.711Z,61.42
2018-09-13T07:49:35.718Z,61.26
2018-09-13T07:52:04.642Z,62.02
2018-09-13T07:54:33.614Z,61.75
2018-09-13T07:57:02.645Z,61.49
2018-09-13T07:59:31.757Z,61.39
2018-09-13T08:02:00.750Z,61.05
2018-09-13T08:04:29.726Z,61.19
2018-09-13T08:06:58.762Z,60.64
2018-09-13T08:09:28.087Z,61.47
2018-09-13T08:11:56.942Z,61.33
2018-09-13T08:14:25.812Z,61.09
2018-09-13T08:16:54.957Z,61.77
2018-09-13T08:19:23.977Z,61.87
2018-09-13T08:21:52.954Z,61.08
2018-09-13T08:24:21.870Z,62.54
2018-09-13T08:26:50.937Z,61.92
2018-09-13T08:29:19.976Z,60.55
2018-09-13T08:31:49.003Z,61.83
2018-09-13T08:34:17.954Z,60.13
2018-09-13T08:36:47.016Z,60.54
2018-09-13T08:39:15.980Z,60.58
2018-09-13T08:41:44.941Z,61.13
2018-09-13T08:44:13.846Z,61.03
2018-09-13T08:46:42.817Z,61.17
2018-09-13T08:49:11.778Z,60.39
2018-09-13T08:51:40.778Z,60.23
2018-09-13T08:54:09.651Z,60.19
2018-09-13T08:56:38.666Z,58.73
2018-09-13T08:59:07.646Z,60.02
2018-09-13T09:01:36.698Z,58.90
2018-09-13T09:04:05.658Z,59.78
2018-09-13T09:06:34.711Z,59.62
2018-09-13T09:09:03.805Z,59.22
2018-09-13T09:11:32.762Z,60.38
2018-09-13T09:14:01.899Z,60.61
2018-09-13T09:16:30.990Z,60.35
2018-09-13T09:18:59.897Z,59.80
2018-09-13T09:21:28.886Z,61.16
2018-09-13T09:23:57.888Z,59.71
2018-09-13T09:26:26.873Z,59.88
2018-09-13T09:28:55.943Z,60.17
2018-09-13T09:31:24.943Z,60.52
2018-09-13T09:33:53.945Z,59.99
2018-09-13T09:36:22.915Z,59.21
2018-09-13T09:38:51.899Z,59.27
2018-09-13T09:41:20.915Z,58.81
2018-09-13T09:43:49.841Z,57.51
2018-09-13T09:46:18.810Z,57.69
2018-09-13T09:48:47.773Z,57.84
2018-09-13T09:51:16.769Z,57.16
2018-09-13T09:53:45.722Z,56.71
2018-09-13T09:56:14.829Z,57.32
2018-09-13T09:58:43.793Z,55.96
2018-09-13T10:01:17.797Z,56.65
2018-09-13T10:03:46.956Z,56.89
2018-09-13T10:06:16.010Z,57.10
2018-09-13T10:08:44.927Z,56.17
2018-09-13T10:11:13.853Z,55.79
2018-09-13T10:13:42.791Z,55.90
2018-09-13T10:16:17.140Z,55.69
2018-09-13T10:18:47.093Z,55.40
2018-09-13T10:21:21.188Z,55.93
2018-09-13T10:23:55.181Z,56.76
2018-09-13T10:26:29.185Z,54.82
2018-09-13T10:29:03.468Z,57.03
2018-09-13T10:31:37.409Z,55.27
2018-09-13T10:34:11.545Z,54.55
2018-09-13T10:36:45.750Z,55.17
2018-09-13T10:39:19.967Z,54.52
2018-09-13T10:41:53.940Z,54.28
2018-09-13T10:44:28.110Z,54.70
2018-09-13T10:47:02.268Z,53.31
2018-09-13T10:49:36.366Z,53.54
2018-09-13T10:52:14.154Z,53.79
2018-09-13T10:54:43.757Z,53.29
2018-09-13T10:57:17.762Z,52.44
2018-09-13T10:59:47.837Z,52.65
2018-09-13T11:02:16.864Z,50.17
2018-09-13T11:04:46.001Z,51.39
2018-09-13T11:07:14.973Z,49.89
2018-09-13T11:09:43.907Z,51.03
2018-09-13T11:12:12.966Z,50.54
2018-09-13T11:14:56.988Z,51.50
2018-09-13T11:17:26.757Z,52.25
2018-09-13T11:19:56.079Z,52.17
2018-09-13T11:22:25.075Z,51.22
2018-09-13T11:24:54.030Z,51.10
2018-09-13T11:27:23.056Z,52.89
2018-09-13T11:29:52.004Z,53.76
2018-09-13T11:32:21.102Z,53.94
2018-09-13T11:34:50.046Z,55.73
2018-09-13T11:37:18.991Z,55.99
2018-09-13T11:39:47.981Z,56.36
2018-09-13T11:42:17.002Z,56.29
2018-09-13T11:44:45.978Z,56.53
2018-09-13T11:47:15.046Z,57.92
2018-09-13T11:49:44.023Z,58.56
2018-09-13T11:52:12.989Z,57.55
2018-09-13T11:54:41.881Z,58.13
2018-09-13T11:57:10.838Z,57.96
2018-09-13T11:59:39.801Z,60.33
2018-09-13T12:02:08.753Z,58.21
2018-09-13T12:04:37.838Z,58.31
2018-09-13T12:07:06.761Z,58.23
2018-09-13T12:09:35.904Z,59.37
2018-09-13T12:12:04.861Z,59.37
2018-09-13T12:14:33.916Z,59.84
2018-09-13T12:17:02.837Z,59.84
2018-09-13T12:19:31.852Z,60.83
2018-09-13T12:22:00.911Z,61.25
2018-09-13T12:24:29.953Z,61.39
2018-09-13T12:26:59.005Z,61.48
2018-09-13T12:29:27.981Z,61.17
2018-09-13T12:31:56.988Z,63.41
2018-09-13T12:34:26.034Z,61.07
2018-09-13T12:36:55.015Z,62.25
2018-09-13T12:39:24.025Z,61.47
2018-09-13T12:41:53.017Z,62.04
2018-09-13T12:44:22.013Z,62.08
2018-09-13T12:46:50.941Z,60.98
2018-09-13T12:49:20.373Z,60.91
2018-09-13T12:51:49.395Z,60.69
2018-09-13T12:54:18.473Z,60.57
2018-09-13T12:56:47.551Z,60.63
2018-09-13T12:59:16.563Z,60.84
2018-09-13T13:01:45.516Z,61.07
2018-09-13T13:04:14.522Z,60.37
2018-09-13T13:06:43.441Z,63.99
2018-09-13T13:09:12.520Z,61.32
2018-09-13T13:11:41.592Z,63.08
2018-09-13T13:14:10.673Z,62.40
2018-09-13T13:16:39.706Z,62.12
2018-09-13T13:19:08.677Z,63.61
2018-09-13T13:21:37.687Z,62.25
2018-09-13T13:24:06.740Z,64.28
2018-09-13T13:26:35.787Z,63.46
2018-09-13T13:29:04.847Z,64.70
2018-09-13T13:31:33.792Z,62.93
2018-09-13T13:34:02.738Z,61.51
2018-09-13T13:36:31.760Z,62.05
2018-09-13T13:39:00.663Z,62.59
2018-09-13T13:41:29.663Z,62.05
2018-09-13T13:43:58.622Z,62.24
2018-09-13T13:46:27.729Z,62.09
2018-09-13T13:48:56.750Z,63.05
2018-09-13T13:51:25.755Z,61.24
2018-09-13T13:53:54.739Z,61.56
2018-09-13T13:56:23.689Z,60.02
2018-09-13T13:58:52.721Z,59.13
2018-09-13T14:01:21.685Z,58.93
2018-09-13T14:03:50.794Z,58.84
2018-09-13T14:06:19.786Z,59.68
2018-09-13T14:08:48.897Z,57.13
2018-09-13T14:11:17.828Z,57.64
2018-09-13T14:13:46.871Z,57.69
2018-09-13T14:16:15.878Z,57.24
2018-09-13T14:18:44.993Z,58.07
2018-09-13T14:21:13.927Z,57.94
2018-09-13T14:23:42.910Z,57.04
2018-09-13T14:26:11.917Z,58.68
2018-09-13T14:28:40.875Z,59.73
2018-09-13T14:31:09.782Z,59.13
2018-09-13T14:33:38.719Z,58.45
2018-09-13T14:36:07.407Z,58.68
2018-09-13T14:38:36.377Z,58.54
2018-09-13T14:41:05.361Z,58.22
2018-09-13T14:43:34.402Z,58.97
2018-09-13T14:46:03.489Z,58.95
2018-09-13T14:48:32.419Z,59.44
2018-09-13T14:51:01.445Z,58.87
2018-09-13T14:53:30.368Z,59.20
2018-09-13T14:55:59.389Z,58.69
2018-09-13T14:58:28.372Z,58.20
2018-09-13T15:00:57.321Z,57.92
2018-09-13T15:03:26.374Z,57.88
2018-09-13T15:05:55.364Z,57.79
2018-09-13T15:08:24.335Z,58.24
2018-09-13T15:10:53.537Z,57.80
2018-09-13T15:13:22.511Z,57.51
2018-09-13T15:15:51.658Z,57.44
2018-09-13T15:18:20.655Z,57.61
2018-09-13T15:20:49.594Z,56.50
2018-09-13T15:23:18.541Z,57.26
2018-09-13T15:25:47.564Z,57.32
2018-09-13T15:28:16.526Z,57.00
2018-09-13T15:30:45.582Z,57.25
2018-09-13T15:33:14.501Z,57.10
2018-09-13T15:35:43.540Z,57.92
2018-09-13T15:38:12.546Z,57.88
2018-09-13T15:40:41.692Z,56.90
2018-09-13T15:43:10.653Z,57.13
2018-09-13T15:45:39.685Z,57.97
2018-09-13T15:48:08.654Z,57.89
2018-09-13T15:50:37.678Z,58.04
2018-09-13T15:53:06.621Z,57.75
2018-09-13T15:55:35.587Z,58.53
2018-09-13T15:58:04.676Z,57.62
2018-09-13T16:00:33.658Z,58.33
2018-09-13T16:03:02.667Z,57.23
2018-09-13T16:05:31.754Z,56.35
2018-09-13T16:08:00.716Z,56.77
2018-09-13T16:10:29.793Z,56.15
2018-09-13T16:12:58.792Z,56.26
2018-09-13T16:15:27.741Z,55.74
2018-09-13T16:17:56.751Z,56.96
2018-09-13T16:20:26.230Z,56.88
2018-09-13T16:22:54.839Z,56.67
2018-09-13T16:25:23.830Z,56.81
2018-09-13T16:27:52.794Z,56.01
2018-09-13T16:30:21.806Z,56.75
2018-09-13T16:32:50.811Z,57.62
2018-09-13T16:35:19.893Z,57.08
2018-09-13T16:37:54.860Z,56.27
2018-09-13T16:40:28.998Z,57.13
2018-09-13T16:43:03.113Z,58.71
2018-09-13T16:45:32.507Z,57.65
2018-09-13T16:48:03.097Z,58.48
2018-09-13T16:50:32.124Z,57.77
2018-09-13T16:53:01.135Z,57.71
2018-09-13T16:55:30.143Z,59.96
2018-09-13T16:57:59.079Z,58.58
2018-09-13T17:00:28.305Z,59.60
2018-09-13T17:02:57.281Z,59.05
2018-09-13T17:05:26.434Z,58.76
2018-09-13T17:07:55.425Z,59.90
2018-09-13T17:10:24.429Z,59.43
2018-09-13T17:12:53.411Z,59.43
2018-09-13T17:15:22.484Z,59.39
2018-09-13T17:17:51.500Z,58.92
2018-09-13T17:20:20.556Z,58.47
2018-09-13T17:22:49.665Z,59.04
2018-09-13T17:25:18.638Z,58.57
2018-09-13T17:27:47.602Z,59.01
2018-09-13T17:30:16.654Z,59.03
2018-09-13T17:32:45.686Z,59.34
2018-09-13T17:35:14.702Z,58.85
2018-09-13T17:37:43.700Z,59.61
2018-09-13T17:40:12.801Z,60.07
2018-09-13T17:42:42.102Z,60.45
2018-09-13T17:45:11.149Z,59.73
2018-09-13T17:47:40.150Z,59.82
2018-09-13T17:50:09.230Z,59.70
2018-09-13T17:52:38.235Z,59.45
2018-09-13T17:55:07.358Z,60.56
2018-09-13T17:57:36.352Z,61.77
2018-09-13T18:00:05.497Z,61.21
2018-09-13T18:02:34.460Z,63.18
2018-09-13T18:05:03.414Z,63.26
2018-09-13T18:07:32.490Z,63.18
2018-09-13T18:10:01.443Z,64.17
2018-09-13T18:12:30.400Z,62.52
2018-09-13T18:14:59.410Z,63.52
2018-09-13T18:17:28.445Z,64.75
2018-09-13T18:19:57.491Z,63.34
2018-09-13T18:22:26.577Z,64.29
2018-09-13T18:24:55.580Z,63.55
2018-09-13T18:27:24.750Z,63.74
2018-09-13T18:29:53.711Z,63.89
2018-09-13T18:32:22.754Z,64.67
2018-09-13T18:34:51.743Z,63.73
2018-09-13T18:37:20.759Z,64.05
2018-09-13T18:39:49.761Z,63.87
2018-09-13T18:42:18.752Z,64.17
2018-09-13T18:44:47.685Z,65.13
2018-09-13T18:47:16.998Z,65.13
2018-09-13T18:49:46.015Z,65.83
2018-09-13T18:52:14.962Z,63.70
2018-09-13T18:54:43.897Z,63.03
2018-09-13T18:57:12.934Z,64.00
2018-09-13T18:59:42.022Z,64.24
2018-09-13T19:02:11.022Z,64.24
2018-09-13T19:04:39.943Z,64.27
2018-09-13T19:07:08.972Z,63.20
2018-09-13T19:09:37.940Z,63.84
2018-09-13T19:12:07.090Z,63.80
2018-09-13T19:14:36.001Z,63.91
2018-09-13T19:17:05.211Z,64.48
2018-09-13T19:19:34.131Z,64.42
2018-09-13T19:22:03.126Z,64.16
2018-09-13T19:24:32.124Z,63.90
2018-09-13T19:27:01.254Z,64.74
2018-09-13T19:29:30.247Z,64.79
2018-09-13T19:31:59.257Z,64.48
2018-09-13T19:34:28.569Z,63.88
2018-09-13T19:36:57.557Z,63.86
2018-09-13T19:39:26.564Z,63.73
2018-09-13T19:41:55.644Z,63.47
2018-09-13T19:44:24.653Z,64.41
2018-09-13T19:46:53.620Z,63.82
2018-09-13T19:49:22.528Z,64.79
2018-09-13T19:51:51.508Z,63.64
2018-09-13T19:54:20.557Z,63.51
2018-09-13T19:56:49.589Z,63.79
2018-09-13T19:59:18.482Z,63.44
2018-09-13T20:01:47.522Z,63.53
2018-09-13T20:04:16.473Z,63.51
2018-09-13T20:06:45.502Z,63.74
2018-09-13T20:09:14.455Z,63.85
2018-09-13T20:11:43.468Z,64.04
2018-09-13T20:14:12.421Z,64.81
2018-09-13T20:16:41.409Z,64.53
2018-09-13T20:19:10.358Z,64.58
2018-09-13T20:21:39.422Z,64.22
2018-09-13T20:24:08.394Z,63.49
2018-09-13T20:26:37.461Z,63.62
2018-09-13T20:29:06.858Z,64.26
2018-09-13T20:31:35.788Z,64.04
2018-09-13T20:34:04.833Z,64.93
2018-09-13T20:36:33.841Z,63.99
2018-09-13T20:39:02.812Z,64.28
2018-09-13T20:41:31.772Z,64.57
2018-09-13T20:44:00.765Z,64.83
2018-09-13T20:46:29.783Z,65.53
2018-09-13T20:48:58.788Z,65.22
2018-09-13T20:51:27.732Z,64.40
2018-09-13T20:53:56.714Z,65.54
2018-09-13T20:56:25.723Z,64.92
2018-09-13T20:58:54.745Z,64.58
2018-09-13T21:01:23.693Z,64.09
2018-09-13T21:03:52.667Z,64.08
2018-09-13T21:06:21.651Z,63.16
2018-09-13T21:08:50.622Z,63.34
2018-09-13T21:11:19.541Z,64.08
2018-09-13T21:13:48.593Z,64.23
2018-09-13T21:16:17.545Z,63.75
2018-09-13T21:18:46.559Z,63.12
2018-09-13T21:21:15.619Z,63.95
2018-09-13T21:23:44.613Z,63.62
2018-09-13T21:26:13.623Z,62.98
2018-09-13T21:28:42.669Z,63.25
2018-09-13T21:31:11.698Z,62.33
2018-09-13T21:33:40.780Z,62.49
2018-09-13T21:36:09.769Z,62.98
2018-09-13T21:38:38.802Z,62.58
2018-09-13T21:41:07.833Z,62.76
2018-09-13T21:43:36.850Z,62.48
2018-09-13T21:46:05.811Z,62.70
2018-09-13T21:48:34.804Z,62.20
2018-09-13T21:51:03.737Z,62.33
2018-09-13T21:53:32.803Z,62.90
2018-09-13T21:56:01.741Z,62.50
2018-09-13T21:58:30.748Z,62.81
2018-09-13T22:00:59.736Z,62.16
2018-09-13T22:03:28.718Z,62.09
2018-09-13T22:05:57.645Z,62.79
2018-09-13T22:08:26.636Z,62.76
2018-09-13T22:10:55.607Z,63.52
2018-09-13T22:13:28.126Z,64.06
2018-09-13T22:15:57.059Z,63.17
2018-09-13T22:18:26.034Z,62.99
2018-09-13T22:20:55.002Z,62.71
2018-09-13T22:23:24.003Z,62.90
2018-09-13T22:25:52.973Z,63.20
2018-09-13T22:28:22.018Z,62.47
2018-09-13T22:30:51.097Z,63.94
2018-09-13T22:33:20.072Z,64.36
2018-09-13T22:35:49.018Z,63.09
2018-09-13T22:38:18.124Z,64.11
2018-09-13T22:40:47.106Z,63.09
2018-09-13T22:43:16.114Z,62.84
2018-09-13T22:45:45.079Z,61.99
2018-09-13T22:48:14.105Z,62.41
2018-09-13T22:50:43.084Z,63.10
2018-09-13T22:53:12.074Z,62.66
2018-09-13T22:55:41.176Z,63.67
2018-09-13T22:58:10.133Z,64.54
2018-09-13T23:00:39.142Z,64.84
2018-09-13T23:03:08.126Z,65.30
2018-09-13T23:05:37.053Z,64.58
2018-09-13T23:08:06.057Z,65.24
2018-09-13T23:10:35.060Z,66.75
2018-09-13T23:13:04.069Z,65.82
2018-09-13T23:15:33.015Z,64.40
2018-09-13T23:18:02.151Z,64.63
2018-09-13T23:20:31.102Z,64.44
2018-09-13T23:23:00.197Z,64.20
2018-09-13T23:25:29.640Z,64.99
2018-09-13T23:27:58.754Z,65.30
2018-09-13T23:30:27.787Z,64.71
2018-09-13T23:32:56.824Z,65.55
2018-09-13T23:35:25.792Z,65.46
2018-09-13T23:37:54.721Z,65.23
2018-09-13T23:40:23.873Z,65.64
2018-09-13T23:42:52.800Z,65.21
2018-09-13T23:45:21.804Z,66.16
2018-09-13T23:47:50.764Z,65.48
2018-09-13T23:50:19.817Z,65.35
2018-09-13T23:52:48.774Z,65.36
2018-09-13T23:55:17.724Z,66.18
2018-09-13T23:57:46.698Z,65.94
